createdAt,value
2023-04-15T00:01:12.121Z,2.84
2023-04-15T00:03:39.420Z,3.03
2023-04-15T00:06:06.323Z,1.00
2023-04-15T00:08:33.264Z,2.27
2023-04-15T00:11:05.904Z,2.37
2023-04-15T00:13:35.914Z,3.05
2023-04-15T00:16:02.745Z,3.11
2023-04-15T00:18:30.114Z,1.85
2023-04-15T00:20:56.859Z,2.42
2023-04-15T00:23:23.551Z,2.27
2023-04-15T00:25:51.007Z,3.43
2023-04-15T00:28:18.437Z,2.27
2023-04-15T00:30:45.866Z,3.18
2023-04-15T00:33:13.695Z,2.97
2023-04-15T00:35:40.712Z,2.07
2023-04-15T00:38:10.572Z,3.11
2023-04-15T00:40:37.884Z,3.00
2023-04-15T00:43:04.585Z,2.92
2023-04-15T00:45:31.937Z,2.08
2023-04-15T00:47:58.683Z,1.68
2023-04-15T00:50:25.483Z,2.88
2023-04-15T00:52:52.144Z,2.29
2023-04-15T00:55:19.281Z,2.97
2023-04-15T00:57:46.504Z,2.59
2023-04-15T01:00:13.610Z,0.84
2023-04-15T01:02:40.461Z,1.97
2023-04-15T01:05:08.420Z,1.95
2023-04-15T01:07:35.162Z,2.74
2023-04-15T01:10:03.938Z,2.04
2023-04-15T01:12:33.290Z,2.73
2023-04-15T01:15:00.376Z,2.98
2023-04-15T01:17:27.206Z,3.22
2023-04-15T01:19:56.894Z,3.10
2023-04-15T01:22:24.561Z,2.85
2023-04-15T01:25:02.425Z,3.15
2023-04-15T01:27:31.278Z,3.43
2023-04-15T01:29:58.392Z,2.16
2023-04-15T01:32:25.396Z,3.54
2023-04-15T01:35:10.871Z,3.39
2023-04-15T01:37:48.399Z,3.38
2023-04-15T01:40:17.395Z,1.00
2023-04-15T01:42:45.632Z,2.57
2023-04-15T01:45:14.121Z,2.70
2023-04-15T01:47:42.071Z,3.18
2023-04-15T01:50:11.185Z,0.27
2023-04-15T01:52:39.135Z,3.26
2023-04-15T01:55:08.556Z,2.28
2023-04-15T01:57:39.904Z,3.30
2023-04-15T02:00:08.504Z,2.49
2023-04-15T02:02:43.639Z,2.23
2023-04-15T02:05:11.837Z,2.64
2023-04-15T02:07:39.713Z,3.02
2023-04-15T02:10:07.941Z,1.58
2023-04-15T02:12:36.923Z,2.54
2023-04-15T02:15:05.633Z,2.80
2023-04-15T02:17:39.395Z,1.51
2023-04-15T02:20:09.408Z,2.17
2023-04-15T02:22:37.625Z,3.15
2023-04-15T02:25:06.144Z,3.11
2023-04-15T02:27:34.125Z,3.38
2023-04-15T02:30:03.156Z,1.65
2023-04-15T02:32:31.279Z,1.83
2023-04-15T02:35:08.967Z,2.81
2023-04-15T02:37:41.706Z,2.52
2023-04-15T02:40:13.935Z,2.84
2023-04-15T02:42:46.277Z,2.38
2023-04-15T02:45:16.913Z,1.76
2023-04-15T02:47:46.886Z,0.59
2023-04-15T02:50:15.195Z,2.98
2023-04-15T02:52:44.655Z,3.09
2023-04-15T02:55:12.688Z,2.22
2023-04-15T02:57:41.257Z,3.24
2023-04-15T03:00:12.058Z,2.98
2023-04-15T03:02:43.931Z,3.34
2023-04-15T03:05:13.828Z,2.79
2023-04-15T03:07:47.533Z,3.07
2023-04-15T03:10:15.575Z,2.23
2023-04-15T03:12:43.493Z,3.13
2023-04-15T03:15:16.787Z,2.43
2023-04-15T03:17:49.634Z,2.29
2023-04-15T03:20:18.432Z,3.11
2023-04-15T03:22:46.608Z,0.49
2023-04-15T03:25:14.582Z,1.96
2023-04-15T03:27:42.658Z,0.51
2023-04-15T03:30:11.203Z,2.97
2023-04-15T03:32:40.154Z,2.37
2023-04-15T03:35:09.896Z,2.73
2023-04-15T03:37:37.797Z,2.22
2023-04-15T03:40:06.258Z,3.17
2023-04-15T03:42:34.257Z,3.14
2023-04-15T03:45:02.162Z,3.13
2023-04-15T03:47:30.068Z,2.23
2023-04-15T03:49:57.978Z,2.04
2023-04-15T03:52:26.076Z,2.06
2023-04-15T03:54:53.909Z,2.96
2023-04-15T03:57:21.817Z,2.72
2023-04-15T03:59:49.741Z,2.08
2023-04-15T04:02:17.955Z,3.57
2023-04-15T04:04:46.463Z,2.96
2023-04-15T04:07:18.339Z,2.47
2023-04-15T04:09:47.400Z,2.51
2023-04-15T04:12:15.609Z,2.62
2023-04-15T04:14:43.649Z,3.12
2023-04-15T04:17:11.853Z,3.16
2023-04-15T04:19:39.809Z,3.20
2023-04-15T04:22:07.864Z,3.38
2023-04-15T04:24:35.802Z,1.74
2023-04-15T04:27:03.769Z,2.77
2023-04-15T04:29:31.754Z,3.42
2023-04-15T04:31:59.824Z,3.33
2023-04-15T04:34:27.907Z,3.35
2023-04-15T04:36:56.018Z,2.77
2023-04-15T04:39:23.927Z,3.21
2023-04-15T04:41:54.603Z,3.09
2023-04-15T04:44:22.456Z,2.91
2023-04-15T04:46:52.681Z,3.06
2023-04-15T04:49:20.608Z,3.37
2023-04-15T04:51:48.954Z,3.23
2023-04-15T04:54:17.624Z,3.31
2023-04-15T04:56:45.696Z,3.01
2023-04-15T04:59:13.940Z,3.92
2023-04-15T05:01:42.072Z,3.06
2023-04-15T05:04:10.100Z,3.16
2023-04-15T05:06:38.125Z,3.49
2023-04-15T05:09:06.122Z,3.50
2023-04-15T05:11:33.978Z,2.32
2023-04-15T05:14:02.428Z,2.36
2023-04-15T05:16:30.464Z,3.76
2023-04-15T05:18:58.427Z,2.92
2023-04-15T05:21:27.733Z,3.83
2023-04-15T05:23:55.684Z,3.84
2023-04-15T05:26:24.382Z,2.82
2023-04-15T05:28:52.300Z,2.20
2023-04-15T05:31:20.511Z,3.67
2023-04-15T05:33:48.531Z,3.06
2023-04-15T05:36:16.589Z,3.14
2023-04-15T05:38:44.533Z,3.77
2023-04-15T05:41:12.446Z,3.11
2023-04-15T05:43:40.576Z,2.79
2023-04-15T05:46:08.685Z,3.98
2023-04-15T05:48:36.802Z,3.95
2023-04-15T05:51:04.952Z,4.09
2023-04-15T05:53:32.941Z,0.88
2023-04-15T05:56:00.811Z,4.15
2023-04-15T05:58:28.676Z,3.76
2023-04-15T06:00:57.054Z,3.84
2023-04-15T06:03:25.567Z,3.46
2023-04-15T06:05:56.400Z,2.75
2023-04-15T06:08:24.370Z,3.77
2023-04-15T06:10:53.229Z,2.62
2023-04-15T06:13:21.484Z,3.74
2023-04-15T06:15:49.524Z,3.62
2023-04-15T06:18:17.461Z,3.09
2023-04-15T06:20:45.548Z,2.97
2023-04-15T06:23:13.428Z,3.40
2023-04-15T06:25:41.627Z,3.91
2023-04-15T06:28:09.702Z,3.63
2023-04-15T06:30:38.513Z,3.42
2023-04-15T06:33:06.569Z,3.28
2023-04-15T06:35:37.056Z,3.78
2023-04-15T06:38:05.395Z,3.86
2023-04-15T06:40:33.666Z,2.44
2023-04-15T06:43:01.883Z,4.07
2023-04-15T06:45:30.685Z,2.85
2023-04-15T06:47:58.611Z,3.88
2023-04-15T06:50:27.435Z,-0.23
2023-04-15T06:52:56.287Z,1.28
2023-04-15T06:55:24.275Z,3.34
2023-04-15T06:57:52.384Z,2.68
2023-04-15T07:00:20.424Z,2.70
2023-04-15T07:02:48.733Z,3.68
2023-04-15T07:05:16.786Z,2.55
2023-04-15T07:07:45.701Z,2.90
2023-04-15T07:10:14.964Z,3.09
2023-04-15T07:12:43.120Z,3.24
2023-04-15T07:15:11.297Z,3.18
2023-04-15T07:17:39.492Z,2.84
2023-04-15T07:20:08.327Z,3.54
2023-04-15T07:22:36.588Z,3.12
2023-04-15T07:25:04.867Z,2.91
2023-04-15T07:27:33.137Z,3.19
2023-04-15T07:30:01.003Z,3.48
2023-04-15T07:32:28.886Z,3.48
2023-04-15T07:34:57.046Z,3.94
2023-04-15T07:37:25.065Z,3.78
2023-04-15T07:39:53.110Z,2.84
2023-04-15T07:42:22.198Z,4.34
2023-04-15T07:44:50.302Z,4.10
2023-04-15T07:47:18.469Z,2.38
2023-04-15T07:49:46.387Z,4.14
2023-04-15T07:52:14.395Z,3.48
2023-04-15T07:54:42.421Z,2.41
2023-04-15T07:57:10.300Z,4.02
2023-04-15T07:59:38.359Z,4.14
2023-04-15T08:02:06.464Z,4.79
2023-04-15T08:04:34.620Z,3.74
2023-04-15T08:07:04.087Z,2.64
2023-04-15T08:09:32.054Z,4.67
2023-04-15T08:12:00.117Z,3.71
2023-04-15T08:14:29.525Z,2.73
2023-04-15T08:16:57.424Z,3.84
2023-04-15T08:19:25.353Z,4.36
2023-04-15T08:21:53.287Z,4.35
2023-04-15T08:24:22.753Z,3.51
2023-04-15T08:26:53.552Z,3.07
2023-04-15T08:29:21.501Z,3.83
2023-04-15T08:31:49.495Z,2.31
2023-04-15T08:34:18.196Z,3.80
2023-04-15T08:36:46.519Z,3.15
2023-04-15T08:39:14.491Z,3.79
2023-04-15T08:41:56.586Z,3.85
2023-04-15T08:44:25.872Z,3.70
2023-04-15T08:46:55.500Z,3.56
2023-04-15T08:49:27.037Z,3.14
2023-04-15T08:51:58.349Z,3.57
2023-04-15T08:54:28.089Z,3.73
2023-04-15T08:56:57.866Z,3.88
2023-04-15T08:59:25.855Z,3.87
2023-04-15T09:01:55.434Z,4.10
2023-04-15T09:04:23.314Z,4.17
2023-04-15T09:06:52.233Z,4.33
2023-04-15T09:09:20.259Z,4.30
2023-04-15T09:11:49.997Z,4.39
2023-04-15T09:14:18.338Z,3.77
2023-04-15T09:17:00.820Z,4.60
2023-04-15T09:19:29.614Z,4.56
2023-04-15T09:21:59.602Z,4.37
2023-04-15T09:24:39.798Z,4.33
2023-04-15T09:27:07.813Z,4.25
2023-04-15T09:29:37.060Z,3.26
2023-04-15T09:32:13.587Z,3.12
2023-04-15T09:34:41.881Z,3.23
2023-04-15T09:37:10.988Z,4.42
2023-04-15T09:39:50.495Z,4.28
2023-04-15T09:42:24.612Z,3.42
2023-04-15T09:44:56.010Z,2.07
2023-04-15T09:47:28.443Z,4.28
2023-04-15T09:49:57.880Z,4.11
2023-04-15T09:52:26.120Z,3.18
2023-04-15T09:54:58.699Z,4.53
2023-04-15T09:57:34.821Z,4.28
2023-04-15T10:00:11.502Z,4.14
2023-04-15T10:02:42.266Z,4.27
2023-04-15T10:05:16.433Z,3.52
2023-04-15T10:07:44.437Z,3.84
2023-04-15T10:10:13.485Z,4.45
2023-04-15T10:12:42.211Z,4.34
2023-04-15T10:15:16.713Z,4.52
2023-04-15T10:17:45.823Z,4.54
2023-04-15T10:20:15.053Z,4.35
2023-04-15T10:22:45.178Z,4.67
2023-04-15T10:25:15.654Z,4.65
2023-04-15T10:27:43.652Z,4.16
2023-04-15T10:30:12.534Z,4.71
2023-04-15T10:32:41.424Z,4.34
2023-04-15T10:35:09.742Z,3.08
2023-04-15T10:37:39.005Z,4.72
2023-04-15T10:40:31.330Z,4.71
2023-04-15T10:43:01.593Z,4.61
2023-04-15T10:45:37.723Z,4.72
2023-04-15T10:48:08.438Z,4.95
2023-04-15T10:50:37.695Z,4.72
2023-04-15T10:53:06.114Z,4.75
2023-04-15T10:55:34.679Z,5.01
2023-04-15T10:58:03.086Z,5.07
2023-04-15T11:00:32.814Z,4.69
2023-04-15T11:03:09.757Z,4.60
2023-04-15T11:05:53.979Z,3.92
2023-04-15T11:08:53.697Z,4.46
2023-04-15T11:11:21.694Z,4.69
2023-04-15T11:13:52.459Z,4.90
2023-04-15T11:16:21.531Z,5.05
2023-04-15T11:18:56.081Z,4.55
2023-04-15T11:21:26.336Z,4.64
2023-04-15T11:23:54.241Z,4.01
2023-04-15T11:26:27.173Z,3.34
2023-04-15T11:28:55.162Z,4.96
2023-04-15T11:31:27.837Z,4.87
2023-04-15T11:33:59.002Z,4.82
2023-04-15T11:36:28.538Z,4.87
2023-04-15T11:38:58.332Z,5.07
2023-04-15T11:41:26.369Z,5.08
2023-04-15T11:43:54.318Z,3.74
2023-04-15T11:46:29.214Z,4.90
2023-04-15T11:48:57.108Z,5.08
2023-04-15T11:51:25.054Z,4.44
2023-04-15T11:53:52.112Z,5.04
2023-04-15T11:56:24.546Z,5.08
2023-04-15T11:58:59.740Z,5.51
2023-04-15T12:01:33.289Z,5.59
2023-04-15T12:04:01.539Z,5.34
2023-04-15T12:06:35.175Z,5.21
2023-04-15T12:09:09.754Z,5.20
2023-04-15T12:11:36.362Z,5.37
2023-04-15T12:14:06.452Z,4.14
2023-04-15T12:16:48.288Z,5.57
2023-04-15T12:19:28.701Z,5.60
2023-04-15T12:22:01.436Z,5.64
2023-04-15T12:24:30.962Z,5.74
2023-04-15T12:27:01.807Z,6.05
2023-04-15T12:29:30.420Z,6.15
2023-04-15T12:32:14.549Z,6.19
2023-04-15T12:34:50.859Z,6.15
2023-04-15T12:37:17.754Z,6.25
2023-04-15T12:39:48.867Z,6.22
2023-04-15T12:42:16.991Z,6.21
2023-04-15T12:44:43.915Z,5.24
2023-04-15T12:47:11.474Z,6.09
2023-04-15T12:49:38.572Z,6.39
2023-04-15T12:52:05.665Z,6.50
2023-04-15T12:54:32.515Z,5.66
2023-04-15T12:56:59.563Z,4.11
2023-04-15T12:59:27.212Z,6.65
2023-04-15T13:01:54.612Z,6.56
2023-04-15T13:04:21.962Z,6.03
2023-04-15T13:06:48.874Z,3.73
2023-04-15T13:09:15.803Z,6.12
2023-04-15T13:11:42.857Z,6.37
2023-04-15T13:14:11.522Z,4.36
2023-04-15T13:16:39.670Z,4.01
2023-04-15T13:19:06.550Z,6.35
2023-04-15T13:21:35.705Z,6.35
2023-04-15T13:24:04.907Z,5.81
2023-04-15T13:26:32.340Z,5.32
2023-04-15T13:28:59.445Z,6.27
2023-04-15T13:31:26.343Z,6.43
2023-04-15T13:33:53.291Z,5.75
2023-04-15T13:36:20.059Z,5.54
2023-04-15T13:38:48.043Z,6.56
2023-04-15T13:41:16.459Z,6.71
2023-04-15T13:43:43.377Z,6.03
2023-04-15T13:46:10.436Z,6.73
2023-04-15T13:48:37.153Z,6.74
2023-04-15T13:51:03.867Z,6.79
2023-04-15T13:53:37.772Z,6.63
2023-04-15T13:56:09.323Z,6.29
2023-04-15T13:58:37.030Z,6.75
2023-04-15T14:01:05.710Z,5.83
2023-04-15T14:03:34.031Z,6.40
2023-04-15T14:06:01.082Z,6.49
2023-04-15T14:08:27.777Z,6.49
2023-04-15T14:10:54.394Z,6.24
2023-04-15T14:13:21.081Z,5.84
2023-04-15T14:15:47.713Z,6.66
2023-04-15T14:18:14.553Z,5.98
2023-04-15T14:20:41.191Z,6.85
2023-04-15T14:23:07.970Z,6.83
2023-04-15T14:25:34.618Z,6.86
2023-04-15T14:28:02.398Z,6.63
2023-04-15T14:30:29.030Z,6.71
2023-04-15T14:32:56.191Z,6.51
2023-04-15T14:35:24.516Z,6.41
2023-04-15T14:37:51.367Z,6.36
2023-04-15T14:40:18.379Z,5.98
2023-04-15T14:42:45.313Z,6.24
2023-04-15T14:45:12.067Z,6.18
2023-04-15T14:47:38.836Z,5.86
2023-04-15T14:50:05.968Z,6.10
2023-04-15T14:52:39.032Z,6.07
2023-04-15T14:55:13.175Z,6.07
2023-04-15T14:57:41.647Z,6.22
2023-04-15T15:00:10.455Z,6.17
2023-04-15T15:02:40.253Z,5.25
2023-04-15T15:05:08.559Z,6.42
2023-04-15T15:07:37.157Z,6.45
2023-04-15T15:10:04.560Z,4.57
2023-04-15T15:12:31.154Z,6.67
2023-04-15T15:14:57.925Z,6.66
2023-04-15T15:17:24.616Z,6.41
2023-04-15T15:19:51.524Z,6.62
2023-04-15T15:22:20.780Z,6.58
2023-04-15T15:24:48.320Z,6.64
2023-04-15T15:27:15.001Z,6.56
2023-04-15T15:29:41.621Z,6.56
2023-04-15T15:32:08.211Z,6.65
2023-04-15T15:34:34.918Z,6.52
2023-04-15T15:37:01.954Z,6.59
2023-04-15T15:39:28.757Z,5.81
2023-04-15T15:41:55.417Z,4.16
2023-04-15T15:44:22.216Z,6.59
2023-04-15T15:46:50.442Z,6.71
2023-04-15T15:49:17.270Z,4.85
2023-04-15T15:51:43.967Z,6.35
2023-04-15T15:54:10.731Z,6.50
2023-04-15T15:56:39.450Z,6.48
2023-04-15T15:59:06.315Z,6.57
2023-04-15T16:01:33.311Z,6.37
2023-04-15T16:04:00.821Z,4.88
2023-04-15T16:06:28.278Z,6.39
2023-04-15T16:08:55.089Z,6.06
2023-04-15T16:11:21.737Z,5.36
2023-04-15T16:13:48.460Z,6.00
2023-04-15T16:16:15.289Z,6.22
2023-04-15T16:18:42.030Z,5.70
2023-04-15T16:21:08.650Z,4.81
2023-04-15T16:23:36.707Z,6.11
2023-04-15T16:26:03.512Z,5.53
2023-04-15T16:28:30.263Z,6.23
2023-04-15T16:30:57.231Z,6.13
2023-04-15T16:33:24.175Z,6.15
2023-04-15T16:35:51.465Z,6.13
2023-04-15T16:38:18.148Z,6.17
2023-04-15T16:40:46.074Z,6.32
2023-04-15T16:43:12.677Z,6.35
2023-04-15T16:45:39.291Z,6.20
2023-04-15T16:48:06.303Z,6.21
2023-04-15T16:50:33.013Z,5.84
2023-04-15T16:52:59.712Z,4.95
2023-04-15T16:55:26.809Z,5.53
2023-04-15T16:58:02.230Z,6.10
2023-04-15T17:00:31.383Z,5.76
2023-04-15T17:02:59.076Z,5.65
2023-04-15T17:05:27.627Z,5.56
2023-04-15T17:07:54.768Z,5.69
2023-04-15T17:10:21.526Z,5.50
2023-04-15T17:12:49.754Z,4.75
2023-04-15T17:15:16.559Z,5.44
2023-04-15T17:17:46.746Z,5.74
2023-04-15T17:20:13.961Z,5.83
2023-04-15T17:22:41.068Z,5.59
2023-04-15T17:25:08.212Z,5.38
2023-04-15T17:27:40.988Z,3.61
2023-04-15T17:30:14.473Z,3.54
2023-04-15T17:33:01.712Z,5.72
2023-04-15T17:35:48.381Z,3.69
2023-04-15T17:38:35.009Z,5.25
2023-04-15T17:41:21.672Z,5.69
2023-04-15T17:44:08.283Z,5.94
2023-04-15T17:46:55.046Z,5.99
2023-04-15T17:49:41.877Z,5.88
2023-04-15T17:52:28.892Z,5.62
2023-04-15T17:55:15.650Z,6.28
2023-04-15T17:58:02.321Z,6.27
2023-04-15T18:00:49.105Z,6.37
2023-04-15T18:03:35.922Z,4.40
2023-04-15T18:06:22.724Z,6.33
2023-04-15T18:09:09.471Z,6.44
2023-04-15T18:11:57.229Z,6.34
2023-04-15T18:14:43.847Z,5.99
2023-04-15T18:17:30.807Z,3.47
2023-04-15T18:20:14.958Z,5.78
2023-04-15T18:22:43.902Z,6.24
2023-04-15T18:25:10.848Z,6.24
2023-04-15T18:27:40.717Z,6.33
2023-04-15T18:30:09.299Z,6.26
2023-04-15T18:32:36.111Z,5.15
2023-04-15T18:35:05.637Z,6.26
2023-04-15T18:37:32.772Z,3.82
2023-04-15T18:39:59.576Z,5.42
2023-04-15T18:42:26.295Z,5.57
2023-04-15T18:44:53.416Z,6.20
2023-04-15T18:47:20.047Z,6.12
2023-04-15T18:49:46.793Z,5.60
2023-04-15T18:52:13.472Z,6.31
2023-04-15T18:54:40.072Z,6.38
2023-04-15T18:57:06.937Z,6.41
2023-04-15T18:59:34.683Z,6.48
2023-04-15T19:02:03.460Z,6.43
2023-04-15T19:04:30.546Z,6.53
2023-04-15T19:06:58.771Z,6.06
2023-04-15T19:09:26.083Z,4.03
2023-04-15T19:11:52.640Z,5.91
2023-04-15T19:14:19.329Z,6.54
2023-04-15T19:16:46.060Z,6.08
2023-04-15T19:19:14.507Z,6.40
2023-04-15T19:21:41.742Z,6.45
2023-04-15T19:24:08.574Z,6.37
2023-04-15T19:26:36.811Z,5.21
2023-04-15T19:29:03.746Z,6.44
2023-04-15T19:31:30.735Z,6.48
2023-04-15T19:33:57.337Z,6.14
2023-04-15T19:36:24.113Z,5.02
2023-04-15T19:38:50.927Z,4.84
2023-04-15T19:41:17.595Z,6.04
2023-04-15T19:43:44.262Z,6.48
2023-04-15T19:46:13.256Z,6.44
2023-04-15T19:48:40.258Z,6.20
2023-04-15T19:51:06.908Z,6.38
2023-04-15T19:53:33.575Z,6.59
2023-04-15T19:56:00.371Z,6.61
2023-04-15T19:58:27.020Z,6.56
2023-04-15T20:00:53.618Z,4.99
2023-04-15T20:03:20.940Z,6.29
2023-04-15T20:05:47.716Z,6.38
2023-04-15T20:08:14.374Z,6.30
2023-04-15T20:10:41.049Z,6.03
2023-04-15T20:13:07.878Z,6.49
2023-04-15T20:15:34.679Z,5.63
2023-04-15T20:18:01.558Z,6.09
2023-04-15T20:20:28.251Z,6.50
2023-04-15T20:22:54.944Z,6.55
2023-04-15T20:25:21.577Z,6.52
2023-04-15T20:27:48.326Z,6.48
2023-04-15T20:30:14.988Z,5.65
2023-04-15T20:32:41.690Z,6.43
2023-04-15T20:35:08.509Z,6.40
2023-04-15T20:37:37.540Z,6.28
2023-04-15T20:40:04.521Z,6.20
2023-04-15T20:42:34.634Z,5.77
2023-04-15T20:45:02.283Z,4.21
2023-04-15T20:47:29.253Z,6.44
2023-04-15T20:49:56.245Z,6.18
2023-04-15T20:52:22.906Z,6.32
2023-04-15T20:54:50.139Z,6.35
2023-04-15T20:57:17.232Z,5.43
2023-04-15T20:59:43.953Z,6.42
2023-04-15T21:02:10.880Z,6.28
2023-04-15T21:04:38.421Z,4.91
2023-04-15T21:07:05.077Z,6.31
2023-04-15T21:09:31.812Z,6.40
2023-04-15T21:12:01.706Z,6.41
2023-04-15T21:14:29.037Z,6.30
2023-04-15T21:16:58.238Z,6.30
2023-04-15T21:19:25.046Z,4.33
2023-04-15T21:21:52.256Z,6.01
2023-04-15T21:24:18.984Z,6.57
2023-04-15T21:26:45.568Z,6.53
2023-04-15T21:29:12.410Z,6.15
2023-04-15T21:31:40.204Z,6.49
2023-04-15T21:34:06.941Z,6.10
2023-04-15T21:36:34.304Z,6.27
2023-04-15T21:39:02.467Z,6.64
2023-04-15T21:41:29.563Z,4.52
2023-04-15T21:43:56.234Z,6.63
2023-04-15T21:46:25.696Z,6.69
2023-04-15T21:48:59.898Z,6.61
2023-04-15T21:51:26.895Z,6.53
2023-04-15T21:53:53.748Z,6.30
2023-04-15T21:56:23.134Z,4.46
2023-04-15T21:58:50.100Z,6.51
2023-04-15T22:01:17.496Z,6.50
2023-04-15T22:03:44.454Z,6.54
2023-04-15T22:06:11.542Z,6.54
2023-04-15T22:08:48.277Z,6.60
2023-04-15T22:11:26.445Z,6.25
2023-04-15T22:13:53.996Z,6.59
2023-04-15T22:16:20.683Z,5.91
2023-04-15T22:18:47.409Z,6.19
2023-04-15T22:21:14.215Z,6.43
2023-04-15T22:23:41.184Z,6.37
2023-04-15T22:26:07.932Z,3.92
2023-04-15T22:28:34.553Z,6.26
2023-04-15T22:31:02.530Z,6.25
2023-04-15T22:33:29.507Z,3.86
2023-04-15T22:35:56.638Z,6.22
2023-04-15T22:38:24.038Z,6.17
2023-04-15T22:40:53.812Z,6.19
2023-04-15T22:43:20.573Z,6.35
2023-04-15T22:45:51.132Z,6.34
2023-04-15T22:48:18.765Z,5.97
2023-04-15T22:50:45.792Z,6.29
2023-04-15T22:53:12.611Z,5.78
2023-04-15T22:55:39.253Z,6.36
2023-04-15T22:58:05.947Z,6.35
2023-04-15T23:00:32.630Z,6.35
2023-04-15T23:02:59.475Z,6.30
2023-04-15T23:05:26.369Z,6.28
2023-04-15T23:07:53.148Z,6.33
2023-04-15T23:10:19.757Z,5.94
2023-04-15T23:12:46.808Z,6.23
2023-04-15T23:15:13.462Z,5.98
2023-04-15T23:17:42.159Z,6.29
2023-04-15T23:20:09.307Z,5.67
2023-04-15T23:22:38.838Z,6.14
2023-04-15T23:25:05.877Z,6.07
2023-04-15T23:27:32.570Z,6.22
2023-04-15T23:29:59.227Z,6.12
2023-04-15T23:32:27.338Z,5.64
2023-04-15T23:34:54.279Z,6.27
2023-04-15T23:37:20.973Z,5.45
2023-04-15T23:39:47.592Z,5.95
2023-04-15T23:42:14.277Z,6.05
2023-04-15T23:44:40.892Z,6.11
2023-04-15T23:47:07.552Z,6.15
2023-04-15T23:49:34.227Z,6.14
2023-04-15T23:52:00.864Z,6.02
2023-04-15T23:54:27.474Z,5.64
2023-04-15T23:56:54.071Z,5.57
2023-04-15T23:59:20.827Z,5.63
